Time;durP1;ratioP1;P1;durP2;ratioP2;P2;SDS_P1;SDS_P2;PMS_P1;PMS_P2;Temp;Humidity;BMP_temperature;BMP_pressure;BME280_temperature;BME280_humidity;BME280_pressure;Samples;Min_cycle;Max_cycle;Signal;HPM_P1;HPM_P2
2022/03/18 00:00:00;;;;;;;16.02;6.22;;;5.30;87.60;;;;;;5027606;28;25077;-69
2022/03/18 00:02:26;;;;;;;22.60;7.78;;;5.20;88.20;;;;;;5029844;28;25072;-68
2022/03/18 00:04:53;;;;;;;28.83;6.80;;;5.10;88.60;;;;;;5028156;28;25064;-68
2022/03/18 00:07:20;;;;;;;16.30;6.82;;;5.10;89.00;;;;;;5028437;28;25148;-69
2022/03/18 00:09:47;;;;;;;20.45;6.97;;;5.00;88.90;;;;;;5028904;28;25063;-68
2022/03/18 00:12:13;;;;;;;20.55;7.13;;;5.00;89.90;;;;;;5028760;28;25083;-68
2022/03/18 00:14:39;;;;;;;23.23;6.88;;;5.00;90.20;;;;;;5027975;28;25137;-69
2022/03/18 00:17:08;;;;;;;27.65;8.30;;;5.10;90.00;;;;;;5046710;28;25073;-68
2022/03/18 00:19:35;;;;;;;20.20;6.80;;;5.10;89.30;;;;;;5029816;28;25068;-69
2022/03/18 00:22:01;;;;;;;15.50;8.02;;;5.10;89.40;;;;;;5029148;28;25090;-69
2022/03/18 00:24:28;;;;;;;17.92;6.80;;;5.10;89.10;;;;;;5028950;28;25063;-69
2022/03/18 00:26:54;;;;;;;17.05;6.95;;;5.00;88.70;;;;;;5028280;28;25116;-68
2022/03/18 00:29:21;;;;;;;21.08;7.30;;;5.10;90.00;;;;;;5029921;28;25078;-68
2022/03/18 00:31:47;;;;;;;20.55;7.60;;;5.10;89.40;;;;;;5027169;28;25063;-68
2022/03/18 00:34:12;;;;;;;18.45;7.57;;;4.90;88.90;;;;;;5025483;28;25056;-69
2022/03/18 00:36:38;;;;;;;25.42;7.60;;;4.90;89.70;;;;;;5030537;28;25128;-68
2022/03/18 00:39:05;;;;;;;20.80;7.90;;;4.90;89.80;;;;;;5027883;28;25065;-69
2022/03/18 00:41:31;;;;;;;17.95;6.53;;;4.90;89.50;;;;;;5028345;28;25058;-68
2022/03/18 00:43:56;;;;;;;26.08;8.07;;;4.90;90.00;;;;;;5028327;28;25058;-68
2022/03/18 00:46:23;;;;;;;22.17;7.85;;;4.80;90.10;;;;;;5028295;28;25141;-68
2022/03/18 00:54:17;;;;;;;17.73;6.60;;;4.90;90.40;;;;;;5028711;28;25126;-68
2022/03/18 00:56:43;;;;;;;20.00;7.65;;;4.80;90.10;;;;;;5015347;28;25065;-69
2022/03/18 00:59:10;;;;;;;21.98;8.00;;;4.80;90.40;;;;;;5027918;28;25140;-68
2022/03/18 01:01:36;;;;;;;21.98;7.60;;;4.80;90.80;;;;;;5029456;28;25111;-69
2022/03/18 01:04:01;;;;;;;20.55;7.88;;;4.80;90.90;;;;;;5027054;28;25115;-68
2022/03/18 01:06:27;;;;;;;23.83;7.50;;;4.80;90.70;;;;;;5026572;28;25078;-68
2022/03/18 01:08:53;;;;;;;23.95;8.70;;;4.70;90.70;;;;;;5028060;28;25070;-67
2022/03/18 01:11:19;;;;;;;23.17;7.97;;;4.70;90.90;;;;;;5028149;28;25068;-69
2022/03/18 01:13:44;;;;;;;21.90;7.80;;;4.70;91.10;;;;;;5028777;28;25066;-69
2022/03/18 01:16:10;;;;;;;31.25;7.38;;;4.70;91.30;;;;;;5032897;28;25152;-70
2022/03/18 01:18:35;;;;;;;21.55;8.02;;;4.70;91.40;;;;;;5027916;28;25094;-68
2022/03/18 01:21:01;;;;;;;19.98;7.32;;;4.70;91.50;;;;;;5028275;28;25144;-69
2022/03/18 01:23:26;;;;;;;21.10;8.07;;;4.60;91.40;;;;;;5027249;28;25075;-69
2022/03/18 01:25:54;;;;;;;18.13;7.35;;;4.50;91.90;;;;;;5049091;28;25068;-68
2022/03/18 01:28:21;;;;;;;19.80;7.57;;;4.50;92.20;;;;;;5054663;28;25080;-67
2022/03/18 01:30:46;;;;;;;19.80;6.82;;;4.60;92.40;;;;;;5037056;28;25062;-69
2022/03/18 01:33:12;;;;;;;22.67;8.02;;;4.50;92.00;;;;;;5024278;28;25081;-68
2022/03/18 01:35:37;;;;;;;21.38;8.07;;;4.50;92.00;;;;;;5030332;28;25068;-69
2022/03/18 01:38:03;;;;;;;25.52;8.13;;;4.40;92.00;;;;;;5028059;28;25074;-67
2022/03/18 01:40:29;;;;;;;21.75;8.23;;;4.40;92.50;;;;;;5026553;28;25076;-69
2022/03/18 01:42:55;;;;;;;18.17;7.45;;;4.50;92.50;;;;;;5029192;28;25141;-69
2022/03/18 01:45:21;;;;;;;17.60;7.03;;;4.40;92.50;;;;;;5015178;28;25073;-68
2022/03/18 01:47:47;;;;;;;21.80;8.65;;;4.40;92.80;;;;;;5025844;28;25140;-67
2022/03/18 01:50:14;;;;;;;18.05;7.93;;;4.40;92.60;;;;;;5025708;28;25080;-68
2022/03/18 01:52:41;;;;;;;17.95;7.13;;;4.40;92.80;;;;;;5029711;28;25069;-69
2022/03/18 01:55:07;;;;;;;15.80;7.40;;;4.40;92.50;;;;;;5029135;28;25154;-69
2022/03/18 01:57:32;;;;;;;17.70;7.60;;;4.30;92.20;;;;;;5022189;28;25075;-68
2022/03/18 01:59:58;;;;;;;21.10;7.72;;;4.20;92.50;;;;;;5037582;28;25090;-69
2022/03/18 02:02:24;;;;;;;19.70;7.85;;;4.30;92.90;;;;;;5030349;28;25150;-69
2022/03/18 02:04:50;;;;;;;14.13;7.35;;;4.20;93.00;;;;;;5027850;28;25145;-68
2022/03/18 02:07:17;;;;;;;15.73;7.47;;;4.30;92.90;;;;;;5033194;28;25071;-69
2022/03/18 02:09:43;;;;;;;23.60;7.65;;;4.30;92.80;;;;;;5010173;28;25087;-68
2022/03/18 02:12:09;;;;;;;25.50;8.38;;;4.30;93.00;;;;;;5024809;28;25086;-68
2022/03/18 02:14:43;;;;;;;20.73;7.82;;;4.20;92.70;;;;;;5030331;28;25057;-68
2022/03/18 02:17:11;;;;;;;18.92;8.05;;;4.20;93.30;;;;;;5049617;28;25095;-69
2022/03/18 02:19:37;;;;;;;15.38;7.00;;;4.20;93.40;;;;;;5039520;28;25144;-67
2022/03/18 02:22:13;;;;;;;20.13;7.55;;;4.20;93.60;;;;;;5029962;28;25098;-68
2022/03/18 02:24:41;;;;;;;19.23;7.25;;;4.30;93.30;;;;;;5030414;28;25138;-68
2022/03/18 02:27:07;;;;;;;16.92;7.82;;;4.30;92.80;;;;;;5030202;28;25076;-69
2022/03/18 02:29:33;;;;;;;23.77;7.43;;;4.10;93.00;;;;;;5030543;28;25064;-68
2022/03/18 02:32:00;;;;;;;20.00;7.40;;;4.10;93.20;;;;;;5026667;28;25072;-68
2022/03/18 02:34:27;;;;;;;20.25;7.55;;;4.10;93.20;;;;;;5027197;28;25078;-68
2022/03/18 02:36:53;;;;;;;15.85;7.97;;;4.20;93.30;;;;;;5029236;28;25126;-69
2022/03/18 02:39:18;;;;;;;20.10;8.52;;;4.20;93.10;;;;;;5029323;28;25063;-68
2022/03/18 02:41:44;;;;;;;19.67;8.40;;;4.10;93.30;;;;;;5032491;28;25091;-67
2022/03/18 02:44:11;;;;;;;21.00;8.30;;;4.10;94.00;;;;;;5021875;28;25055;-68
2022/03/18 02:46:37;;;;;;;29.17;8.82;;;4.00;93.90;;;;;;5028605;28;25053;-69
2022/03/18 02:49:04;;;;;;;19.27;8.10;;;4.10;94.40;;;;;;5028067;28;25074;-68
2022/03/18 02:51:30;;;;;;;21.20;8.32;;;4.10;94.60;;;;;;5028729;28;25059;-68
2022/03/18 02:53:56;;;;;;;12.95;8.15;;;4.10;94.40;;;;;;5028604;28;25076;-68
2022/03/18 02:56:22;;;;;;;20.48;8.07;;;4.00;94.40;;;;;;5029612;28;25156;-70
2022/03/18 02:58:49;;;;;;;20.20;10.20;;;4.00;94.40;;;;;;5032251;28;25079;-69
2022/03/18 03:01:15;;;;;;;25.30;9.23;;;3.90;94.70;;;;;;5031425;28;25099;-68
2022/03/18 03:03:40;;;;;;;26.52;9.57;;;4.00;95.00;;;;;;5029223;28;25090;-69
2022/03/18 03:08:50;;;;;;;17.85;8.85;;;4.00;94.80;;;;;;5054532;28;25074;-68
2022/03/18 03:11:16;;;;;;;21.15;8.93;;;3.90;94.80;;;;;;5049607;28;25083;-67
2022/03/18 03:13:43;;;;;;;28.00;9.15;;;3.90;95.20;;;;;;5029522;28;25070;-68
2022/03/18 03:16:09;;;;;;;21.98;9.02;;;3.90;95.50;;;;;;5036779;28;25078;-70
2022/03/18 03:18:35;;;;;;;18.52;8.57;;;3.90;95.50;;;;;;5028512;28;25066;-67
2022/03/18 03:21:00;;;;;;;21.65;8.85;;;3.90;95.40;;;;;;5029320;28;25079;-68
2022/03/18 03:23:26;;;;;;;23.88;9.00;;;3.80;95.10;;;;;;5028727;28;25060;-68
2022/03/18 03:25:53;;;;;;;26.27;8.85;;;3.70;95.50;;;;;;5028203;28;25130;-69
2022/03/18 03:28:18;;;;;;;15.73;7.65;;;3.90;95.70;;;;;;5028826;28;25138;-68
2022/03/18 03:30:44;;;;;;;17.27;8.32;;;3.80;95.30;;;;;;5028173;28;25080;-68
2022/03/18 03:33:10;;;;;;;19.20;7.50;;;3.80;95.20;;;;;;5033618;28;25072;-68
2022/03/18 03:35:37;;;;;;;18.52;7.90;;;3.80;95.40;;;;;;5029506;28;25085;-69
2022/03/18 03:38:03;;;;;;;24.63;9.45;;;3.80;95.20;;;;;;5027940;28;25144;-68
2022/03/18 03:40:29;;;;;;;22.77;9.45;;;3.80;95.20;;;;;;5027897;28;25051;-68
2022/03/18 03:42:54;;;;;;;23.00;9.00;;;3.70;95.20;;;;;;5028720;28;25148;-67
2022/03/18 03:45:20;;;;;;;19.08;8.82;;;3.70;95.30;;;;;;5028804;28;25125;-68
2022/03/18 03:47:46;;;;;;;18.00;9.32;;;3.80;95.60;;;;;;5046683;23;25133;-65
2022/03/18 03:50:12;;;;;;;21.65;9.55;;;3.80;95.80;;;;;;5015679;28;25140;-65
2022/03/18 03:52:37;;;;;;;24.13;9.13;;;3.80;95.70;;;;;;5015355;28;25093;-65
2022/03/18 03:55:05;;;;;;;19.73;8.70;;;3.80;95.60;;;;;;5011118;28;25138;-66
2022/03/18 03:57:31;;;;;;;21.17;8.18;;;3.80;95.60;;;;;;5012455;28;25084;-65
2022/03/18 03:59:56;;;;;;;15.27;9.63;;;3.90;95.40;;;;;;5012464;28;25088;-66
2022/03/18 04:02:22;;;;;;;14.75;8.13;;;3.80;95.10;;;;;;5011765;28;25069;-65
2022/03/18 04:04:49;;;;;;;21.13;8.60;;;3.80;95.90;;;;;;5005031;28;25154;-64
2022/03/18 04:07:15;;;;;;;23.88;9.32;;;3.90;95.60;;;;;;5002308;28;25081;-65
2022/03/18 04:09:42;;;;;;;17.92;8.73;;;3.90;94.80;;;;;;4999596;28;25143;-68
2022/03/18 04:12:08;;;;;;;24.02;8.43;;;3.80;95.00;;;;;;5001276;28;25106;-66
2022/03/18 04:14:34;;;;;;;16.17;9.27;;;3.80;95.00;;;;;;5001584;28;25084;-65
2022/03/18 04:17:01;;;;;;;21.42;9.13;;;3.70;95.10;;;;;;5008306;28;25160;-65
2022/03/18 04:19:27;;;;;;;22.38;9.45;;;3.80;95.20;;;;;;5008594;28;25098;-66
2022/03/18 04:21:52;;;;;;;19.23;9.50;;;3.80;95.10;;;;;;5008570;28;25097;-66
2022/03/18 04:24:18;;;;;;;20.10;9.52;;;3.80;95.00;;;;;;5008061;28;25159;-65
2022/03/18 04:26:43;;;;;;;21.17;8.88;;;3.80;95.00;;;;;;5007768;28;25175;-65
2022/03/18 04:29:10;;;;;;;18.67;8.77;;;3.80;94.90;;;;;;5008297;28;25059;-65
2022/03/18 04:31:36;;;;;;;18.45;9.07;;;3.70;94.80;;;;;;5009949;28;25088;-66
2022/03/18 04:34:02;;;;;;;21.17;9.70;;;3.70;94.80;;;;;;5001784;28;25092;-66
2022/03/18 04:36:28;;;;;;;24.35;11.02;;;3.60;94.70;;;;;;5008620;28;25097;-66
2022/03/18 04:38:54;;;;;;;21.92;10.13;;;3.60;95.30;;;;;;5008275;28;25144;-65
2022/03/18 04:41:19;;;;;;;24.77;10.63;;;3.60;95.50;;;;;;5007517;28;25130;-66
2022/03/18 04:43:45;;;;;;;19.20;9.57;;;3.60;95.60;;;;;;5008557;28;25088;-64
2022/03/18 04:46:10;;;;;;;25.60;10.23;;;3.60;95.70;;;;;;5028283;28;25041;-65
2022/03/18 04:48:36;;;;;;;19.02;10.15;;;3.60;95.50;;;;;;5004888;28;25101;-65
2022/03/18 04:51:02;;;;;;;22.38;11.27;;;3.60;95.50;;;;;;5007894;28;25062;-65
2022/03/18 04:53:27;;;;;;;21.25;10.65;;;3.50;95.50;;;;;;5006850;28;25114;-65
2022/03/18 04:55:53;;;;;;;22.05;10.55;;;3.50;95.50;;;;;;5009903;28;25057;-64
2022/03/18 04:58:18;;;;;;;16.88;9.15;;;3.50;96.00;;;;;;5007128;28;25131;-66
2022/03/18 05:00:44;;;;;;;22.13;9.90;;;3.50;95.70;;;;;;5005211;28;24787;-65
2022/03/18 05:03:10;;;;;;;25.20;9.85;;;3.50;95.90;;;;;;5003384;28;25104;-67
2022/03/18 05:05:37;;;;;;;17.38;10.15;;;3.40;95.60;;;;;;5007347;28;25158;-66
2022/03/18 05:08:03;;;;;;;20.98;12.07;;;3.40;95.70;;;;;;4998346;28;25058;-66
2022/03/18 05:10:29;;;;;;;20.08;10.38;;;3.40;96.00;;;;;;4994015;28;25147;-65
2022/03/18 05:12:55;;;;;;;21.75;9.15;;;3.50;96.10;;;;;;5004177;28;25059;-65
2022/03/18 05:15:21;;;;;;;21.52;9.98;;;3.50;96.20;;;;;;4996167;28;25073;-65
2022/03/18 05:17:51;;;;;;;18.02;10.10;;;3.50;96.30;;;;;;4990694;28;25070;-65
2022/03/18 05:20:18;;;;;;;18.90;10.30;;;3.50;96.10;;;;;;4996027;28;25095;-65
2022/03/18 05:22:45;;;;;;;22.17;11.27;;;3.40;95.90;;;;;;5005632;28;25076;-63
2022/03/18 05:25:12;;;;;;;17.60;10.27;;;3.30;96.00;;;;;;5006613;28;25138;-66
2022/03/18 05:27:43;;;;;;;24.85;10.63;;;3.30;96.40;;;;;;4999450;28;25045;-65
2022/03/18 05:30:15;;;;;;;18.05;10.75;;;3.30;96.80;;;;;;5002728;28;25064;-64
2022/03/18 05:32:41;;;;;;;19.65;11.20;;;3.40;96.80;;;;;;5002287;28;25083;-65
2022/03/18 05:35:07;;;;;;;20.23;10.23;;;3.50;97.00;;;;;;5004721;28;25056;-64
2022/03/18 05:37:33;;;;;;;18.90;10.25;;;3.40;96.60;;;;;;5007077;28;25073;-66
2022/03/18 05:39:59;;;;;;;16.40;9.43;;;3.30;96.90;;;;;;5001368;28;25063;-64
2022/03/18 05:42:25;;;;;;;17.52;9.68;;;3.40;97.20;;;;;;4998803;28;25118;-65
2022/03/18 05:44:51;;;;;;;18.83;9.77;;;3.30;97.10;;;;;;5006590;28;25104;-66
2022/03/18 05:47:16;;;;;;;19.27;11.82;;;3.30;97.30;;;;;;5000277;28;25086;-66
2022/03/18 05:49:42;;;;;;;24.65;11.95;;;3.40;97.50;;;;;;5000659;28;25137;-65
2022/03/18 05:52:08;;;;;;;22.45;11.02;;;3.30;97.20;;;;;;4999721;28;25129;-64
2022/03/18 05:54:33;;;;;;;19.83;11.35;;;3.30;97.60;;;;;;4995476;28;25113;-66
2022/03/18 05:56:59;;;;;;;23.00;10.73;;;3.30;97.70;;;;;;5013474;28;25122;-65
2022/03/18 05:59:30;;;;;;;21.40;10.75;;;3.30;97.40;;;;;;5013124;28;25119;-64
2022/03/18 06:01:58;;;;;;;19.73;10.93;;;3.30;97.60;;;;;;5011648;28;25055;-66
2022/03/18 06:04:24;;;;;;;17.80;9.63;;;3.20;97.70;;;;;;5014691;28;25055;-66
2022/03/18 06:06:50;;;;;;;18.10;9.73;;;3.20;98.10;;;;;;5016031;28;25072;-66
2022/03/18 06:12:01;;;;;;;34.00;16.20;;;3.30;98.20;;;;;;5004756;28;25083;-65
2022/03/18 06:14:29;;;;;;;18.85;11.43;;;3.30;98.30;;;;;;5009341;28;25065;-65
2022/03/18 06:16:57;;;;;;;18.27;10.40;;;3.40;98.40;;;;;;5010244;28;25072;-65
2022/03/18 06:19:24;;;;;;;18.15;10.90;;;3.40;98.50;;;;;;5014045;28;25071;-64
2022/03/18 06:21:50;;;;;;;16.77;10.85;;;3.40;98.70;;;;;;5014212;28;25091;-66
2022/03/18 06:24:17;;;;;;;20.63;10.70;;;3.50;99.10;;;;;;5014813;28;25164;-65
2022/03/18 06:26:43;;;;;;;18.65;9.85;;;3.60;99.10;;;;;;5012572;28;25072;-67
2022/03/18 06:29:09;;;;;;;19.70;11.20;;;3.70;99.10;;;;;;5009097;28;25074;-66
2022/03/18 06:31:36;;;;;;;17.38;10.48;;;3.70;98.80;;;;;;5009501;28;25165;-67
2022/03/18 06:34:02;;;;;;;16.05;10.20;;;3.70;98.80;;;;;;5011087;28;25102;-65
2022/03/18 06:36:28;;;;;;;19.15;11.38;;;3.80;99.00;;;;;;5010779;28;25069;-64
2022/03/18 06:38:54;;;;;;;16.80;11.20;;;3.90;99.00;;;;;;5011836;28;25086;-65
2022/03/18 06:41:20;;;;;;;26.23;12.65;;;4.00;99.00;;;;;;5011784;28;25061;-64
2022/03/18 06:43:47;;;;;;;16.17;10.25;;;4.00;98.90;;;;;;5014429;28;25143;-65
2022/03/18 06:46:14;;;;;;;19.17;11.10;;;4.00;99.10;;;;;;5039312;28;25091;-65
2022/03/18 06:48:40;;;;;;;21.38;11.40;;;4.10;99.00;;;;;;5028711;28;25078;-66
2022/03/18 06:51:06;;;;;;;13.20;9.60;;;4.20;98.90;;;;;;5025041;28;25086;-65
2022/03/18 06:53:31;;;;;;;47.55;10.25;;;4.30;99.00;;;;;;5014681;28;25103;-67
2022/03/18 06:55:57;;;;;;;28.02;12.85;;;4.30;99.10;;;;;;5013378;28;25094;-65
2022/03/18 06:58:22;;;;;;;23.70;12.18;;;4.40;99.00;;;;;;5011654;28;25059;-64
2022/03/18 07:00:48;;;;;;;33.28;11.57;;;4.50;99.20;;;;;;5010565;28;25081;-64
2022/03/18 07:03:13;;;;;;;26.02;12.10;;;4.60;99.30;;;;;;5010789;28;25145;-65
2022/03/18 07:05:39;;;;;;;27.95;13.43;;;4.60;99.10;;;;;;5010072;28;25056;-65
2022/03/18 07:08:05;;;;;;;26.65;16.42;;;4.70;99.30;;;;;;5009250;28;25145;-65
2022/03/18 07:10:31;;;;;;;29.73;17.88;;;4.80;99.30;;;;;;5009215;28;25085;-65
2022/03/18 07:12:57;;;;;;;182.38;93.03;;;4.90;99.60;;;;;;5009459;28;25154;-65
2022/03/18 07:15:22;;;;;;;78.93;34.47;;;5.10;99.90;;;;;;4997106;28;25157;-66
2022/03/18 07:18:00;;;;;;;43.45;26.15;;;5.10;99.50;;;;;;5002224;28;25081;-64
2022/03/18 07:20:28;;;;;;;44.00;20.80;;;5.20;99.30;;;;;;4999612;28;25095;-66
2022/03/18 07:23:08;;;;;;;28.55;18.20;;;5.40;99.40;;;;;;5004438;28;25128;-64
2022/03/18 07:25:36;;;;;;;32.83;18.13;;;5.40;99.20;;;;;;5004267;28;25059;-64
2022/03/18 07:28:01;;;;;;;27.10;18.42;;;5.50;99.10;;;;;;4996160;28;25119;-64
2022/03/18 07:30:27;;;;;;;31.83;17.02;;;5.70;99.40;;;;;;5004232;28;25187;-65
2022/03/18 07:32:53;;;;;;;29.38;15.88;;;5.70;98.80;;;;;;4993298;28;25063;-66
2022/03/18 07:35:19;;;;;;;33.03;16.73;;;5.80;98.60;;;;;;5007134;28;25058;-65
2022/03/18 07:37:46;;;;;;;28.27;15.35;;;5.90;98.50;;;;;;4995428;28;25055;-65
2022/03/18 07:40:11;;;;;;;31.08;15.35;;;6.10;98.00;;;;;;4999306;28;25077;-67
2022/03/18 07:42:57;;;;;;;27.25;14.07;;;6.10;97.50;;;;;;4995794;28;25055;-65
2022/03/18 07:45:26;;;;;;;33.50;14.02;;;6.20;97.10;;;;;;5004838;28;25071;-65
2022/03/18 07:47:53;;;;;;;25.80;13.38;;;6.30;96.90;;;;;;5002650;28;25080;-64
2022/03/18 07:50:20;;;;;;;24.23;12.07;;;6.40;96.10;;;;;;5007023;28;25069;-66
2022/03/18 07:52:47;;;;;;;24.58;12.57;;;6.50;95.60;;;;;;4999500;28;25117;-66
2022/03/18 07:55:13;;;;;;;22.42;12.05;;;6.60;95.20;;;;;;5001888;28;25076;-65
2022/03/18 07:57:38;;;;;;;21.48;12.48;;;6.70;94.40;;;;;;5006212;28;25135;-65
2022/03/18 08:00:04;;;;;;;20.33;10.65;;;6.70;93.50;;;;;;5001310;28;25072;-64
2022/03/18 08:02:30;;;;;;;24.90;11.20;;;6.80;93.00;;;;;;5001557;28;25074;-65
2022/03/18 08:04:56;;;;;;;23.20;10.98;;;7.00;93.00;;;;;;4998487;28;25069;-67
2022/03/18 08:07:21;;;;;;;22.92;10.20;;;7.20;92.00;;;;;;5002458;28;25110;-65
2022/03/18 08:09:47;;;;;;;21.20;10.05;;;7.40;91.20;;;;;;5005854;28;25158;-65
2022/03/18 08:12:13;;;;;;;19.63;9.63;;;7.40;89.70;;;;;;4996440;28;25047;-66
2022/03/18 08:14:39;;;;;;;24.05;9.38;;;7.60;87.90;;;;;;5011579;28;25086;-65
2022/03/18 08:17:05;;;;;;;21.20;9.82;;;7.60;85.50;;;;;;5015234;28;25016;-65
2022/03/18 08:19:31;;;;;;;20.05;9.48;;;7.70;84.20;;;;;;4999287;28;25056;-66
2022/03/18 08:21:56;;;;;;;23.33;8.88;;;7.70;81.30;;;;;;5003480;28;25068;-67
2022/03/18 08:24:22;;;;;;;16.50;8.27;;;8.00;80.90;;;;;;5001912;28;25069;-66
2022/03/18 08:26:47;;;;;;;19.55;8.68;;;8.10;78.40;;;;;;4996845;28;25066;-65
2022/03/18 08:29:13;;;;;;;18.88;9.00;;;8.20;77.50;;;;;;4998012;28;25067;-66
2022/03/18 08:31:39;;;;;;;16.40;9.38;;;8.30;76.70;;;;;;5002698;28;25067;-66
2022/03/18 08:34:04;;;;;;;18.23;8.25;;;8.60;77.20;;;;;;5002492;28;25067;-65
2022/03/18 08:36:29;;;;;;;13.43;7.30;;;8.90;75.90;;;;;;5003499;28;25081;-65
2022/03/18 08:38:55;;;;;;;15.27;7.95;;;9.30;74.80;;;;;;5001668;28;25071;-64
2022/03/18 08:41:21;;;;;;;13.60;8.00;;;9.80;72.40;;;;;;5001555;28;25101;-66
2022/03/18 08:43:47;;;;;;;19.33;8.25;;;10.30;70.20;;;;;;5002510;28;25090;-69
2022/03/18 08:46:12;;;;;;;22.25;8.38;;;10.80;67.30;;;;;;5009123;28;25078;-65
2022/03/18 08:48:38;;;;;;;13.45;7.25;;;11.10;65.10;;;;;;5010081;28;25073;-65
2022/03/18 08:51:03;;;;;;;19.45;7.93;;;11.30;60.70;;;;;;5009613;28;25062;-66
2022/03/18 08:53:29;;;;;;;12.27;5.65;;;11.30;60.80;;;;;;5009891;28;25127;-65
2022/03/18 08:55:56;;;;;;;12.93;6.05;;;11.20;55.30;;;;;;5007485;28;25072;-65
2022/03/18 08:58:22;;;;;;;12.05;6.10;;;11.30;48.00;;;;;;5006372;28;25073;-65
2022/03/18 09:00:48;;;;;;;17.55;6.75;;;10.90;50.50;;;;;;5008144;28;25062;-65
2022/03/18 09:03:14;;;;;;;12.52;6.07;;;10.90;52.30;;;;;;5009522;28;25092;-65
2022/03/18 09:05:40;;;;;;;13.75;6.80;;;11.50;54.60;;;;;;5006544;28;25088;-65
2022/03/18 09:08:05;;;;;;;17.40;6.68;;;11.90;52.60;;;;;;4994424;28;25139;-66
2022/03/18 09:10:31;;;;;;;15.38;6.10;;;12.10;47.90;;;;;;4997881;28;25072;-65
2022/03/18 09:13:00;;;;;;;12.85;5.63;;;12.00;45.40;;;;;;5003970;28;25064;-65
2022/03/18 09:15:26;;;;;;;12.55;5.30;;;12.10;48.40;;;;;;5006167;28;25047;-65
2022/03/18 09:17:52;;;;;;;16.30;5.22;;;12.30;47.00;;;;;;5008722;28;25068;-65
2022/03/18 09:20:18;;;;;;;15.80;5.28;;;12.30;46.50;;;;;;5006178;28;25081;-66
2022/03/18 09:22:43;;;;;;;12.80;4.95;;;11.60;44.80;;;;;;5013417;28;25099;-65
2022/03/18 09:25:09;;;;;;;14.57;5.13;;;11.50;46.30;;;;;;5007347;28;25053;-66
2022/03/18 09:27:35;;;;;;;8.93;4.35;;;11.40;47.70;;;;;;5002139;28;25055;-66
2022/03/18 09:30:01;;;;;;;14.25;6.28;;;11.40;50.30;;;;;;5010941;28;25071;-64
2022/03/18 09:32:27;;;;;;;14.00;5.55;;;11.30;49.60;;;;;;5000926;28;25133;-67
2022/03/18 09:34:54;;;;;;;11.13;4.97;;;11.30;50.70;;;;;;5006891;28;25092;-66
2022/03/18 09:37:20;;;;;;;10.18;4.88;;;11.50;52.70;;;;;;5007866;28;25145;-65
2022/03/18 09:39:45;;;;;;;16.33;5.20;;;11.60;49.60;;;;;;5013765;28;25057;-66
2022/03/18 09:42:11;;;;;;;13.02;4.75;;;12.30;49.40;;;;;;5007831;28;25060;-65
2022/03/18 09:44:37;;;;;;;14.93;4.88;;;12.40;47.00;;;;;;5011651;28;25118;-64
2022/03/18 09:47:04;;;;;;;18.38;5.55;;;12.30;45.30;;;;;;4995180;28;25057;-65
2022/03/18 09:49:30;;;;;;;17.65;5.82;;;12.00;47.20;;;;;;5024306;23;25072;-69
2022/03/18 09:51:56;;;;;;;60.10;17.10;;;12.40;46.50;;;;;;5029725;28;25063;-69
2022/03/18 09:54:22;;;;;;;31.77;10.07;;;12.30;46.80;;;;;;5031146;28;25074;-68
2022/03/18 09:56:48;;;;;;;14.75;5.18;;;12.30;48.70;;;;;;5029211;28;25078;-69
2022/03/18 09:59:14;;;;;;;13.65;4.88;;;12.30;45.20;;;;;;5025468;28;25122;-69
2022/03/18 10:01:40;;;;;;;15.90;5.32;;;12.30;45.30;;;;;;5024873;28;25129;-69
2022/03/18 10:04:11;;;;;;;15.60;5.25;;;12.30;45.40;;;;;;5027266;28;25162;-71
2022/03/18 10:06:38;;;;;;;12.63;4.93;;;12.20;45.60;;;;;;5007987;28;25061;-68
2022/03/18 10:09:05;;;;;;;15.25;4.88;;;12.30;45.50;;;;;;5026981;28;25070;-70
2022/03/18 10:11:33;;;;;;;14.32;5.68;;;12.20;45.40;;;;;;5026246;28;25056;-71
2022/03/18 10:14:10;;;;;;;17.00;5.40;;;12.70;44.90;;;;;;5030477;28;25068;-71
2022/03/18 10:16:41;;;;;;;14.38;5.43;;;13.20;43.80;;;;;;5030078;28;25050;-70
2022/03/18 10:19:17;;;;;;;14.25;5.13;;;12.90;42.20;;;;;;5031564;28;25063;-70
2022/03/18 10:21:54;;;;;;;15.98;5.38;;;12.60;43.60;;;;;;5027130;28;25075;-71
2022/03/18 10:24:27;;;;;;;14.15;5.10;;;12.50;45.80;;;;;;5020008;28;25105;-67
2022/03/18 10:27:15;;;;;;;16.38;5.25;;;13.10;44.70;;;;;;5040282;28;25070;-68
2022/03/18 10:29:46;;;;;;;11.23;6.10;;;13.00;43.00;;;;;;5040548;28;25112;-71
2022/03/18 10:32:14;;;;;;;12.77;5.40;;;12.60;44.00;;;;;;5024281;28;25068;-70
2022/03/18 10:37:26;;;;;;;14.45;6.13;;;12.80;45.60;;;;;;5033234;28;25134;-69
2022/03/18 10:39:59;;;;;;;19.02;6.68;;;12.90;44.80;;;;;;5037732;28;25126;-71
2022/03/18 10:42:25;;;;;;;17.33;5.72;;;13.20;44.50;;;;;;5039145;28;25072;-70
2022/03/18 10:44:54;;;;;;;14.52;5.60;;;13.70;42.70;;;;;;5036787;28;25132;-70
2022/03/18 10:47:33;;;;;;;14.20;6.13;;;13.70;40.80;;;;;;5031422;28;25154;-71
2022/03/18 10:50:11;;;;;;;19.40;6.15;;;13.50;41.40;;;;;;5035509;28;25071;-71
2022/03/18 10:52:37;;;;;;;21.65;6.28;;;13.10;42.50;;;;;;5035699;28;25059;-69
2022/03/18 10:55:35;;;;;;;14.77;5.53;;;13.20;44.50;;;;;;5030363;28;25070;-70
2022/03/18 10:58:03;;;;;;;12.98;6.22;;;13.50;42.40;;;;;;5007209;28;25054;-70
2022/03/18 11:00:34;;;;;;;12.63;5.18;;;13.20;44.30;;;;;;5019665;28;25070;-68
2022/03/18 11:03:01;;;;;;;13.20;5.80;;;13.20;44.70;;;;;;5029361;28;25084;-70
2022/03/18 11:05:30;;;;;;;13.50;4.80;;;13.30;44.50;;;;;;5029973;28;25076;-69
2022/03/18 11:07:56;;;;;;;13.48;5.40;;;13.50;44.00;;;;;;5033323;28;25088;-69
2022/03/18 11:13:10;;;;;;;12.98;5.50;;;14.20;42.20;;;;;;5028462;28;25064;-71
2022/03/18 11:15:40;;;;;;;11.18;5.00;;;14.00;41.70;;;;;;5028795;28;25137;-69
2022/03/18 11:18:11;;;;;;;12.85;5.25;;;14.00;42.20;;;;;;5027840;28;25128;-70
2022/03/18 11:20:42;;;;;;;13.52;5.47;;;14.10;41.90;;;;;;5026817;28;25065;-72
2022/03/18 11:23:16;;;;;;;13.45;5.45;;;14.10;40.40;;;;;;5028913;28;25052;-69
2022/03/18 11:25:46;;;;;;;17.50;5.40;;;13.90;41.20;;;;;;5031218;28;25059;-69
2022/03/18 11:28:17;;;;;;;14.15;5.47;;;14.20;42.10;;;;;;5028810;28;25058;-70
2022/03/18 11:30:44;;;;;;;11.80;5.20;;;14.20;40.50;;;;;;5029414;28;25054;-71
2022/03/18 11:33:10;;;;;;;13.30;5.07;;;14.30;41.40;;;;;;5024935;28;25141;-68
2022/03/18 11:35:50;;;;;;;12.95;5.25;;;14.30;41.80;;;;;;5029902;28;25068;-72
2022/03/18 11:38:23;;;;;;;12.55;5.13;;;14.70;40.60;;;;;;5030128;28;25056;-73
2022/03/18 11:40:58;;;;;;;;;;;15.00;38.50;;;;;;5030125;28;25055;-71
2022/03/18 11:43:41;;;;;;;14.13;5.50;;;15.20;39.40;;;;;;5025055;28;24079;-72
2022/03/18 11:46:13;;;;;;;17.75;6.25;;;15.10;36.50;;;;;;5053641;28;25115;-70
2022/03/18 11:48:41;;;;;;;15.57;6.35;;;14.90;38.10;;;;;;5031651;28;25120;-69
2022/03/18 11:51:37;;;;;;;10.63;5.20;;;14.60;39.10;;;;;;5029692;28;25066;-69
2022/03/18 11:54:05;;;;;;;13.77;5.55;;;14.80;38.10;;;;;;5033262;28;25165;-73
2022/03/18 11:56:47;;;;;;;12.00;5.10;;;14.80;37.60;;;;;;5030217;28;25157;-69
2022/03/18 11:59:24;;;;;;;15.90;5.63;;;14.90;37.70;;;;;;5028499;28;25081;-73
2022/03/18 12:01:54;;;;;;;14.05;5.30;;;14.90;37.70;;;;;;5027319;28;25111;-69
2022/03/18 12:04:44;;;;;;;11.65;5.20;;;14.60;38.00;;;;;;5026151;28;25104;-72
2022/03/18 12:07:19;;;;;;;14.25;4.90;;;14.90;37.30;;;;;;5025716;28;25077;-70
2022/03/18 12:09:52;;;;;;;12.80;5.35;;;15.00;36.10;;;;;;5026390;28;25088;-70
2022/03/18 12:12:24;;;;;;;16.52;5.45;;;14.80;36.20;;;;;;5021249;28;25077;-71
2022/03/18 12:14:54;;;;;;;12.25;5.97;;;15.10;37.00;;;;;;5027146;28;25073;-70
2022/03/18 12:17:21;;;;;;;14.02;5.65;;;15.10;36.70;;;;;;5026595;28;25073;-72
2022/03/18 12:19:54;;;;;;;9.85;5.40;;;15.70;35.90;;;;;;5025643;28;25074;-72
2022/03/18 12:22:22;;;;;;;14.88;5.70;;;15.90;35.40;;;;;;5026140;28;25098;-70
2022/03/18 12:24:49;;;;;;;14.50;5.07;;;15.80;35.00;;;;;;5025553;28;25072;-70
2022/03/18 12:27:20;;;;;;;17.08;5.43;;;16.10;33.10;;;;;;5023796;28;25091;-71
2022/03/18 12:29:45;;;;;;;10.65;5.05;;;15.80;32.40;;;;;;5023698;28;25067;-72
2022/03/18 12:32:15;;;;;;;13.68;4.82;;;15.80;31.20;;;;;;5023943;28;25104;-71
2022/03/18 12:34:50;;;;;;;11.48;5.18;;;16.30;30.10;;;;;;5024315;28;25102;-71
2022/03/18 12:37:20;;;;;;;14.05;5.15;;;16.40;30.60;;;;;;5025258;28;25120;-72
2022/03/18 12:40:43;;;;;;;11.88;5.25;;;16.80;29.30;;;;;;5024906;28;25077;-72
2022/03/18 12:43:09;;;;;;;13.77;5.63;;;16.50;28.70;;;;;;5031176;28;25092;-70
2022/03/18 12:45:42;;;;;;;17.45;6.22;;;15.80;30.10;;;;;;5025467;28;25098;-68
2022/03/18 12:48:12;;;;;;;12.35;6.10;;;15.50;32.00;;;;;;5026980;28;25073;-69
2022/03/18 12:50:44;;;;;;;12.68;5.60;;;15.40;32.50;;;;;;5028462;28;25074;-70
2022/03/18 12:53:12;;;;;;;15.95;5.80;;;15.50;32.00;;;;;;5032477;28;25090;-71
2022/03/18 12:55:38;;;;;;;11.38;5.70;;;16.00;31.80;;;;;;5031336;28;25071;-74
2022/03/18 12:58:04;;;;;;;11.10;5.90;;;15.80;32.60;;;;;;5031189;28;25098;-74